This is the latest recevied weather packets stored in our database for station/object 9M2SES-13. If no packets are shown the sender has not sent any weather packets the latest 10 day(s).
| Time | Temp. | Humidity | Pressure | Rain* | Wind** | Luminosity | Snow |
|---|---|---|---|---|---|---|---|
| 1777791023 | 27.78° C | 95% | - | 0 mm | - | 0 W/m² | - |
| 1777789822 | 28.89° C | 95% | - | 0 mm | - | 0 W/m² | - |
| 1777789221 | 30° C | 95% | - | 0 mm | - | 0 W/m² | - |
| 1777788019 | 30.56° C | 95% | - | 0 mm | - | 0 W/m² | - |
| 1777787418 | 32.78° C | 47% | - | 0 mm | - | 0 W/m² | - |
| 1777786216 | 35° C | 10% | - | 0 mm | - | 0 W/m² | - |
| 1777785014 | 33.89° C | 10% | - | 0 mm | - | 0 W/m² | - |
| 1777783212 | 32.78° C | 33% | - | 0 mm | - | 0 W/m² | - |
| 1777781410 | 31.67° C | 61% | - | 0 mm | - | 0 W/m² | - |
| 1777780208 | 33.89° C | 27% | - | 0 mm | - | 0 W/m² | - |
| 1777779006 | 33.89° C | 38% | - | 0 mm | - | 0 W/m² | - |
| 1777777805 | 32.78° C | 68% | - | 0 mm | - | 0 W/m² | - |
| 1777777203 | 31.67° C | 86% | - | 0 mm | - | 0 W/m² | - |
| 1777776002 | 31.67° C | 94% | - | 0 mm | - | 0 W/m² | - |
| 1777774800 | 31.67° C | 95% | - | 0 mm | - | 0 W/m² | - |
| 1777774199 | 30.56° C | 95% | - | 0 mm | - | 0 W/m² | - |
| 1777773598 | 30.56° C | 95% | - | 0 mm | - | 0 W/m² | - |
| 1777772997 | 30° C | 95% | - | 0 mm | - | 0 W/m² | - |
| 1777771795 | 30° C | 95% | - | 0 mm | - | 0 W/m² | - |
| 1777771194 | 30° C | 95% | - | 0 mm | - | 0 W/m² | - |
| 1777770593 | 27.78° C | 95% | - | 0 mm | - | 0 W/m² | - |
| 1777769392 | 27.78° C | 95% | - | 0 mm | - | 0 W/m² | - |
| 1777768190 | 27.78° C | 95% | - | 0 mm | - | 0 W/m² | - |
| 1777767588 | 26.67° C | 95% | - | 0 mm | - | 0 W/m² | - |
| 1777766387 | 26.67° C | 95% | - | 0 mm | - | 0 W/m² | - |
* Rain latest hour (hover to see other rain measurements)
** Current wind speed in m/s (hover to see current wind gust speed)